Time;durP1;ratioP1;P1;durP2;ratioP2;P2;SDS_P1;SDS_P2;PMS_P1;PMS_P2;Temp;Humidity;BMP_temperature;BMP_pressure;BME280_temperature;BME280_humidity;BME280_pressure;Samples;Min_cycle;Max_cycle;Signal;HPM_P1;HPM_P2
2023/10/02 00:01:47;;;;;;;1999.90;999.90;;;16.90;99.90;;;;;;5094891;28;20024;-65
2023/10/02 00:04:19;;;;;;;1999.90;999.90;;;16.90;99.90;;;;;;5095208;28;20032;-66
2023/10/02 00:06:46;;;;;;;1999.90;999.90;;;16.90;99.90;;;;;;5099846;28;20051;-65
2023/10/02 00:09:13;;;;;;;1999.90;999.90;;;16.90;99.90;;;;;;5104569;28;20035;-65
2023/10/02 00:11:39;;;;;;;;;;;16.90;99.90;;;;;;5111137;28;20027;-66
2023/10/02 00:14:19;;;;;;;1999.90;999.90;;;16.90;99.90;;;;;;5115765;28;19915;-66
2023/10/02 00:17:03;;;;;;;1999.90;999.90;;;16.80;99.90;;;;;;5114851;28;20032;-65
2023/10/02 00:19:38;;;;;;;1999.90;999.90;;;16.80;99.90;;;;;;5115414;28;20295;-65
2023/10/02 00:22:34;;;;;;;1999.90;999.90;;;16.80;99.90;;;;;;5114834;28;20031;-65
2023/10/02 00:24:57;;;;;;;1999.90;999.90;;;16.70;99.90;;;;;;5115501;28;20092;-65
2023/10/02 00:27:23;;;;;;;1999.90;999.90;;;16.70;99.90;;;;;;5107642;28;20027;-65
2023/10/02 00:29:52;;;;;;;1999.90;999.90;;;16.70;99.90;;;;;;5095009;28;20111;-65
2023/10/02 00:32:21;;;;;;;1999.90;999.90;;;16.60;99.90;;;;;;5095833;28;20020;-65
2023/10/02 00:34:47;;;;;;;1999.90;999.90;;;16.60;99.90;;;;;;5103286;28;20019;-65
2023/10/02 00:37:13;;;;;;;1999.90;999.90;;;16.60;99.90;;;;;;5097194;28;20059;-75
2023/10/02 00:39:40;;;;;;;1999.90;999.90;;;16.60;99.90;;;;;;5106605;28;20055;-66
2023/10/02 00:42:15;;;;;;;1999.90;999.90;;;16.60;99.90;;;;;;5098260;28;20035;-65
2023/10/02 00:45:03;;;;;;;1999.90;999.90;;;16.70;99.90;;;;;;5097104;28;20024;-71
2023/10/02 00:47:41;;;;;;;1999.90;999.90;;;16.70;99.90;;;;;;5104053;28;20043;-65
2023/10/02 00:50:15;;;;;;;1999.90;999.90;;;16.70;99.90;;;;;;5094162;28;20108;-66
2023/10/02 00:52:48;;;;;;;1999.90;999.90;;;16.70;99.90;;;;;;5096879;28;20410;-65
2023/10/02 00:55:20;;;;;;;1999.90;999.90;;;16.70;99.90;;;;;;5096260;28;20070;-65
2023/10/02 00:57:50;;;;;;;1999.90;999.90;;;16.70;99.90;;;;;;5102202;28;20029;-66
2023/10/02 01:00:21;;;;;;;1999.90;999.90;;;16.80;99.90;;;;;;5098721;28;20465;-65
2023/10/02 01:02:57;;;;;;;1999.90;999.90;;;16.80;99.90;;;;;;5093948;28;20120;-65
2023/10/02 01:05:30;;;;;;;1999.90;999.90;;;16.80;99.90;;;;;;5098080;28;20032;-65
2023/10/02 01:07:59;;;;;;;1999.90;999.90;;;16.80;99.90;;;;;;5097135;28;20016;-65
2023/10/02 01:10:29;;;;;;;1999.90;999.90;;;16.70;99.90;;;;;;5096832;28;20492;-75
2023/10/02 01:13:05;;;;;;;1999.90;999.90;;;16.70;99.90;;;;;;5105794;28;20538;-66
2023/10/02 01:15:32;;;;;;;1999.90;999.90;;;16.70;99.90;;;;;;5106229;28;20108;-65
2023/10/02 01:20:48;;;;;;;1999.90;999.90;;;16.60;99.90;;;;;;5104534;28;20031;-65
2023/10/02 01:23:16;;;;;;;1999.90;999.90;;;16.50;99.90;;;;;;5110781;28;20031;-74
2023/10/02 01:25:47;;;;;;;1999.90;999.90;;;16.50;99.90;;;;;;5104534;28;20031;-65
2023/10/02 01:28:13;;;;;;;1999.90;999.90;;;16.50;99.90;;;;;;5086786;28;20065;-65
2023/10/02 01:30:47;;;;;;;1999.90;999.90;;;16.50;99.90;;;;;;5105674;28;20034;-65
2023/10/02 01:33:26;;;;;;;1999.90;999.90;;;16.40;99.90;;;;;;5106498;28;20020;-65
2023/10/02 01:35:54;;;;;;;1999.90;999.90;;;16.40;99.90;;;;;;5106375;28;20319;-65
2023/10/02 01:38:36;;;;;;;1999.90;999.90;;;16.40;99.90;;;;;;5107105;28;20030;-65
2023/10/02 01:41:07;;;;;;;1999.90;999.90;;;16.40;99.90;;;;;;5111417;28;20077;-65
2023/10/02 01:43:39;;;;;;;1999.90;999.90;;;16.40;99.90;;;;;;5111120;28;20042;-65
2023/10/02 01:46:05;;;;;;;1999.90;999.90;;;16.40;99.90;;;;;;5109084;28;20026;-65
2023/10/02 01:48:40;;;;;;;;;;;16.40;99.90;;;;;;5107847;28;20032;-65
2023/10/02 01:51:26;;;;;;;1999.90;999.90;;;16.40;99.90;;;;;;5110617;28;19926;-65
2023/10/02 01:53:54;;;;;;;1999.90;999.90;;;16.40;99.90;;;;;;5112096;28;20040;-65
2023/10/02 01:56:22;;;;;;;1999.90;999.90;;;16.30;99.90;;;;;;5108452;28;20157;-66
2023/10/02 01:58:50;;;;;;;1999.90;999.90;;;16.30;99.90;;;;;;5081676;28;20032;-65
2023/10/02 02:01:17;;;;;;;1999.90;999.90;;;16.30;99.90;;;;;;5111956;28;20036;-65
2023/10/02 02:03:50;;;;;;;1999.90;999.90;;;16.30;99.90;;;;;;5113409;28;20019;-73
2023/10/02 02:06:20;;;;;;;1999.90;999.90;;;16.30;99.90;;;;;;5107722;28;20020;-65
2023/10/02 02:09:22;;;;;;;1999.90;999.90;;;16.30;99.90;;;;;;5108732;28;20050;-65
2023/10/02 02:11:34;;;;;;;1999.90;999.90;;;16.30;99.90;;;;;;5106543;28;20036;-65
2023/10/02 02:14:03;;;;;;;1999.90;999.90;;;16.40;99.90;;;;;;5108536;28;20020;-65
2023/10/02 02:16:35;;;;;;;1999.90;999.90;;;16.30;99.90;;;;;;5110033;28;20107;-65
2023/10/02 02:19:06;;;;;;;1999.90;999.90;;;16.30;99.90;;;;;;5110765;28;20031;-65
2023/10/02 02:21:33;;;;;;;1999.90;999.90;;;16.30;99.90;;;;;;5088554;28;20024;-65
2023/10/02 02:24:07;;;;;;;;;;;16.30;99.90;;;;;;5113962;28;20027;-65
2023/10/02 02:26:41;;;;;;;1999.90;999.90;;;16.30;99.90;;;;;;5108049;28;20338;-65
2023/10/02 02:29:28;;;;;;;1999.90;999.90;;;16.30;99.90;;;;;;5106922;28;20417;-65
2023/10/02 02:31:54;;;;;;;1999.90;999.90;;;16.30;99.90;;;;;;5110075;28;20061;-65
2023/10/02 02:34:23;;;;;;;1999.90;999.90;;;16.40;99.90;;;;;;5108513;28;20034;-65
2023/10/02 02:36:50;;;;;;;1999.90;999.90;;;16.30;99.90;;;;;;5109439;28;20023;-65
2023/10/02 02:39:17;;;;;;;1999.90;999.90;;;16.30;99.90;;;;;;5106179;28;20034;-65
2023/10/02 02:41:43;;;;;;;1999.90;999.90;;;16.30;99.90;;;;;;5103946;28;20028;-64
2023/10/02 02:46:55;;;;;;;1999.90;999.90;;;16.30;99.90;;;;;;5109148;28;20097;-65
2023/10/02 02:49:23;;;;;;;1999.90;999.90;;;16.30;99.90;;;;;;5096594;28;20048;-65
2023/10/02 02:51:49;;;;;;;1999.90;999.90;;;16.30;99.90;;;;;;5100742;28;20154;-65
2023/10/02 02:54:15;;;;;;;1999.90;999.90;;;16.30;99.90;;;;;;5101967;28;20050;-65
2023/10/02 02:56:41;;;;;;;1999.90;999.90;;;16.30;99.90;;;;;;5112066;28;20056;-65
2023/10/02 02:59:08;;;;;;;1999.90;999.90;;;16.40;99.90;;;;;;5102036;28;20033;-65
2023/10/02 03:01:34;;;;;;;1999.90;999.90;;;16.40;99.90;;;;;;5112276;28;20031;-65
2023/10/02 03:04:11;;;;;;;1999.90;999.90;;;16.40;99.90;;;;;;5106512;28;20028;-65
2023/10/02 03:06:37;;;;;;;;;;;16.40;99.90;;;;;;5106686;28;20028;-66
2023/10/02 03:09:05;;;;;;;1999.90;999.90;;;16.40;99.90;;;;;;5108606;28;19915;-65
2023/10/02 03:11:32;;;;;;;1999.90;999.90;;;16.40;99.90;;;;;;5102803;28;20035;-65
2023/10/02 03:14:12;;;;;;;1999.90;999.90;;;16.40;99.90;;;;;;5113875;28;20023;-65
2023/10/02 03:16:38;;;;;;;1999.90;999.90;;;16.30;99.90;;;;;;5110173;28;20023;-65
2023/10/02 03:19:07;;;;;;;1999.90;999.90;;;16.30;99.90;;;;;;5107535;28;20034;-65
2023/10/02 03:21:37;;;;;;;1999.90;999.90;;;16.30;99.90;;;;;;5106300;28;20034;-75
2023/10/02 03:24:04;;;;;;;1999.90;999.90;;;16.30;99.90;;;;;;5109114;27;20020;-65
2023/10/02 03:29:03;;;;;;;1999.90;999.90;;;16.30;99.90;;;;;;5103826;28;20308;-72
2023/10/02 03:31:43;;;;;;;1999.90;999.90;;;16.30;99.90;;;;;;5097041;28;20024;-65
2023/10/02 03:34:30;;;;;;;1999.90;999.90;;;16.30;99.90;;;;;;5096589;28;20085;-65
2023/10/02 03:36:59;;;;;;;;;;;16.30;99.90;;;;;;5102973;28;20075;-65
2023/10/02 03:42:21;;;;;;;1999.90;999.90;;;16.30;99.90;;;;;;5110995;28;20070;-65
2023/10/02 03:44:48;;;;;;;1999.90;999.90;;;16.30;99.90;;;;;;5115209;28;20028;-65
2023/10/02 03:47:13;;;;;;;1999.90;999.90;;;16.30;99.90;;;;;;5096749;28;20031;-74
2023/10/02 03:49:43;;;;;;;1999.90;999.90;;;16.30;99.90;;;;;;5104223;28;20391;-65
2023/10/02 03:52:09;;;;;;;1999.90;999.90;;;16.30;99.90;;;;;;5099837;28;20313;-65
2023/10/02 03:54:35;;;;;;;;;;;16.30;99.90;;;;;;5116745;28;20019;-65
2023/10/02 03:57:01;;;;;;;1999.90;999.90;;;16.30;99.90;;;;;;5109475;28;19953;-65
2023/10/02 03:59:31;;;;;;;1999.90;999.90;;;16.30;99.90;;;;;;5115564;28;20410;-65
2023/10/02 04:04:43;;;;;;;1999.90;999.90;;;16.30;99.90;;;;;;5115901;28;20123;-65
2023/10/02 04:07:11;;;;;;;1999.90;999.90;;;16.30;99.90;;;;;;5113509;28;20023;-65
2023/10/02 04:09:37;;;;;;;1999.90;999.90;;;16.30;99.90;;;;;;5095341;28;20099;-66
2023/10/02 04:12:06;;;;;;;1999.90;999.90;;;16.30;99.90;;;;;;5099090;28;20015;-65
2023/10/02 04:14:33;;;;;;;1999.90;999.90;;;16.40;99.90;;;;;;5105822;28;20062;-65
2023/10/02 04:17:13;;;;;;;1999.90;999.90;;;16.30;99.90;;;;;;5113564;28;20307;-65
2023/10/02 04:19:43;;;;;;;1999.90;999.90;;;16.40;99.90;;;;;;5092899;28;20410;-65
2023/10/02 04:22:16;;;;;;;1999.90;999.90;;;16.30;99.90;;;;;;5113382;28;20089;-65
2023/10/02 04:24:54;;;;;;;1999.90;999.90;;;16.30;99.90;;;;;;5100672;28;20478;-65
2023/10/02 04:28:00;;;;;;;1999.90;999.90;;;16.30;99.90;;;;;;5105993;28;20043;-65
2023/10/02 04:32:49;;;;;;;1999.90;999.90;;;16.20;99.90;;;;;;5113573;28;20110;-65
2023/10/02 04:38:07;;;;;;;1999.90;999.90;;;16.20;99.90;;;;;;5107123;28;20034;-65
2023/10/02 04:40:49;;;;;;;1999.90;999.90;;;16.20;99.90;;;;;;5081560;28;20361;-75
2023/10/02 04:43:25;;;;;;;1999.90;999.90;;;16.20;99.90;;;;;;5107984;28;20426;-65
2023/10/02 04:46:08;;;;;;;1999.90;999.90;;;16.10;99.90;;;;;;5111719;28;20088;-74
2023/10/02 04:48:45;;;;;;;1999.90;999.90;;;16.10;99.90;;;;;;5107642;28;20320;-65
2023/10/02 04:51:16;;;;;;;1999.90;999.90;;;16.00;99.90;;;;;;5094722;28;20259;-74
2023/10/02 04:53:45;;;;;;;1999.90;999.90;;;16.10;99.90;;;;;;5094961;28;20022;-65
2023/10/02 04:58:50;;;;;;;1999.90;999.90;;;16.00;99.90;;;;;;5083517;28;20099;-75
2023/10/02 05:01:34;;;;;;;1999.90;999.90;;;15.90;99.90;;;;;;5103022;28;20020;-65
2023/10/02 05:04:03;;;;;;;1999.90;999.90;;;15.90;99.90;;;;;;5109088;28;20438;-69
2023/10/02 05:06:44;;;;;;;1999.90;999.90;;;15.90;99.90;;;;;;5095162;28;20024;-65
2023/10/02 05:11:55;;;;;;;1999.90;999.90;;;15.90;99.90;;;;;;5103311;28;20016;-65
2023/10/02 05:14:29;;;;;;;1999.90;999.90;;;16.00;99.90;;;;;;5107766;28;20438;-65
2023/10/02 05:17:17;;;;;;;1999.90;999.90;;;16.00;99.90;;;;;;5100262;28;20062;-75
2023/10/02 05:19:56;;;;;;;1999.90;999.90;;;16.00;99.90;;;;;;5098680;28;20024;-65
2023/10/02 05:22:30;;;;;;;1999.90;999.90;;;16.00;99.90;;;;;;5100190;28;20361;-65
2023/10/02 05:24:59;;;;;;;1999.90;999.90;;;16.10;99.90;;;;;;5112520;28;20023;-65
2023/10/02 05:27:30;;;;;;;1999.90;999.90;;;16.10;99.90;;;;;;5103662;28;20034;-65
2023/10/02 05:30:00;;;;;;;1999.90;999.90;;;16.10;99.90;;;;;;5111992;28;20086;-65
2023/10/02 05:32:35;;;;;;;1999.90;999.90;;;16.10;99.90;;;;;;5108243;28;20015;-65
2023/10/02 05:37:51;;;;;;;1999.90;999.90;;;16.10;99.90;;;;;;5100346;28;20019;-65
2023/10/02 05:42:53;;;;;;;;;;;16.00;99.90;;;;;;5119447;28;20032;-65
2023/10/02 05:50:52;;;;;;;1999.90;999.90;;;15.90;99.90;;;;;;5075104;28;20037;-65
2023/10/02 05:53:19;;;;;;;1999.90;999.90;;;15.90;99.90;;;;;;5075628;28;20025;-65
2023/10/02 05:58:35;;;;;;;1999.90;999.90;;;15.90;99.90;;;;;;5071734;28;20031;-75
2023/10/02 06:01:06;;;;;;;1999.90;999.90;;;15.80;99.90;;;;;;5074714;28;20142;-65
2023/10/02 06:03:36;;;;;;;1999.90;999.90;;;15.90;99.90;;;;;;5075060;28;20045;-75
2023/10/02 06:06:21;;;;;;;1999.90;999.90;;;15.90;99.90;;;;;;5061299;28;20020;-65
2023/10/02 06:08:52;;;;;;;1999.90;999.90;;;15.90;99.90;;;;;;5073614;28;20048;-65
2023/10/02 06:11:34;;;;;;;1999.90;999.90;;;15.90;99.90;;;;;;5074701;28;20431;-66
2023/10/02 06:14:12;;;;;;;1999.90;999.90;;;16.00;99.90;;;;;;5065960;28;20025;-65
2023/10/02 06:16:42;;;;;;;1999.90;999.90;;;16.10;99.90;;;;;;5053996;28;20087;-65
2023/10/02 06:19:18;;;;;;;1999.90;999.90;;;16.10;99.90;;;;;;5064413;28;20418;-65
2023/10/02 06:22:00;;;;;;;;;;;16.10;99.90;;;;;;5080436;28;20042;-74
2023/10/02 06:24:29;;;;;;;1999.90;999.90;;;16.10;99.90;;;;;;5112249;28;20261;-65
2023/10/02 06:26:58;;;;;;;1999.90;999.90;;;16.10;99.90;;;;;;5110803;28;20028;-65
2023/10/02 06:29:35;;;;;;;1999.90;999.90;;;16.10;99.90;;;;;;5106835;28;20023;-75
2023/10/02 06:32:05;;;;;;;1999.90;999.90;;;16.20;99.90;;;;;;5112623;28;20045;-65
2023/10/02 06:34:37;;;;;;;1999.90;999.90;;;16.20;99.90;;;;;;5108715;28;20081;-65
2023/10/02 06:37:13;;;;;;;1999.90;999.90;;;16.20;99.90;;;;;;5093320;28;20407;-66
2023/10/02 06:39:41;;;;;;;1999.90;999.90;;;16.10;99.90;;;;;;5106513;28;20308;-65
2023/10/02 06:42:09;;;;;;;1999.90;999.90;;;16.20;99.90;;;;;;5111465;28;20023;-65
2023/10/02 06:45:01;;;;;;;1999.90;999.90;;;16.30;99.90;;;;;;5111174;28;20043;-65
2023/10/02 06:47:24;;;;;;;1999.90;999.90;;;16.20;99.90;;;;;;5110091;28;20124;-65
2023/10/02 06:49:52;;;;;;;1999.90;999.90;;;16.30;99.90;;;;;;5111778;28;20093;-66
2023/10/02 06:52:21;;;;;;;1999.90;999.90;;;16.40;99.90;;;;;;5091710;28;20027;-65
2023/10/02 06:54:49;;;;;;;1999.90;999.90;;;16.40;99.90;;;;;;5107493;27;20027;-65
2023/10/02 06:57:19;;;;;;;1999.90;999.90;;;16.40;99.90;;;;;;5103710;27;20020;-65
2023/10/02 06:59:53;;;;;;;1999.90;999.90;;;16.50;99.90;;;;;;5112947;27;20057;-65
2023/10/02 07:02:24;;;;;;;1999.90;999.90;;;16.50;99.90;;;;;;5106727;27;20111;-65
2023/10/02 07:04:52;;;;;;;1999.90;999.90;;;16.50;99.90;;;;;;5108082;27;20027;-65
2023/10/02 07:07:25;;;;;;;1999.90;999.90;;;16.50;99.90;;;;;;5114877;27;20317;-65
2023/10/02 07:10:07;;;;;;;1999.90;999.90;;;16.60;99.90;;;;;;5120399;27;20426;-65
2023/10/02 07:12:40;;;;;;;1999.90;999.90;;;16.60;99.90;;;;;;5109958;27;20073;-65
2023/10/02 07:15:13;;;;;;;1999.90;999.90;;;16.70;99.90;;;;;;5080348;28;20634;-65
2023/10/02 07:17:50;;;;;;;1999.90;999.90;;;16.70;99.90;;;;;;5092661;28;20035;-65
2023/10/02 07:20:42;;;;;;;1999.90;999.90;;;16.80;99.90;;;;;;5105053;27;20023;-65
2023/10/02 07:23:19;;;;;;;1999.90;999.90;;;16.90;99.90;;;;;;5105046;27;20390;-74
2023/10/02 07:25:51;;;;;;;1999.90;999.90;;;16.90;99.90;;;;;;5100323;27;20350;-66
2023/10/02 07:28:20;;;;;;;1999.90;999.90;;;16.90;99.90;;;;;;5100352;28;20030;-66
2023/10/02 07:30:46;;;;;;;1999.90;999.90;;;16.90;99.90;;;;;;5106104;27;20563;-65
2023/10/02 07:33:13;;;;;;;1999.90;999.90;;;17.00;99.90;;;;;;5102292;27;20423;-66
2023/10/02 07:36:08;;;;;;;1999.90;999.90;;;17.00;99.90;;;;;;5112231;27;20023;-75
2023/10/02 07:38:42;;;;;;;1999.90;999.90;;;17.10;99.90;;;;;;5102671;27;20024;-66
2023/10/02 07:41:23;;;;;;;1999.90;999.90;;;17.20;99.90;;;;;;5098355;28;20035;-65
2023/10/02 07:44:07;;;;;;;1999.90;999.90;;;17.20;99.90;;;;;;5109387;27;20115;-74
2023/10/02 07:46:33;;;;;;;1999.90;999.90;;;17.30;99.90;;;;;;5110000;27;20422;-65
2023/10/02 07:49:00;;;;;;;1999.90;999.90;;;17.40;99.90;;;;;;5106761;27;20031;-65
2023/10/02 07:51:35;;;;;;;1999.90;999.90;;;17.40;99.90;;;;;;5105941;27;20137;-67
2023/10/02 07:54:08;;;;;;;1999.90;999.90;;;17.50;99.90;;;;;;5101348;27;20076;-66
2023/10/02 07:56:35;;;;;;;1999.90;999.90;;;17.50;99.90;;;;;;5099345;27;20049;-65
2023/10/02 07:59:01;;;;;;;1999.90;999.90;;;17.60;99.90;;;;;;5105058;27;20016;-65
2023/10/02 08:01:33;;;;;;;1999.90;999.90;;;17.60;99.90;;;;;;5102039;27;20154;-65
2023/10/02 08:04:01;;;;;;;1999.90;999.90;;;17.60;99.90;;;;;;5090147;27;20074;-65
2023/10/02 08:09:47;;;;;;;1999.90;999.90;;;17.60;99.90;;;;;;5123387;27;20440;-67
2023/10/02 08:11:53;;;;;;;1999.90;999.90;;;17.70;99.90;;;;;;5097457;27;20032;-66
2023/10/02 08:14:45;;;;;;;1999.90;999.90;;;17.70;99.90;;;;;;5110560;28;20016;-66
2023/10/02 08:17:19;;;;;;;1999.90;999.90;;;17.80;99.90;;;;;;5105110;27;20407;-65
2023/10/02 08:19:59;;;;;;;1999.90;999.90;;;17.80;99.90;;;;;;5112625;27;20030;-66
2023/10/02 08:22:35;;;;;;;1999.90;999.90;;;17.90;99.90;;;;;;5102171;27;20019;-65
2023/10/02 08:25:13;;;;;;;1999.90;999.90;;;17.90;99.90;;;;;;5082141;28;20023;-66
2023/10/02 08:27:39;;;;;;;1999.90;999.90;;;18.00;99.90;;;;;;5108553;28;20042;-65
2023/10/02 08:30:18;;;;;;;;;;;18.10;99.90;;;;;;5114582;27;20028;-65
2023/10/02 08:32:49;;;;;;;1999.90;999.90;;;18.10;99.90;;;;;;5094328;28;20727;-65
2023/10/02 08:35:16;;;;;;;1999.90;999.90;;;18.20;99.90;;;;;;5113014;27;20013;-65
2023/10/02 08:37:42;;;;;;;1999.90;999.90;;;18.10;99.90;;;;;;5103622;27;20031;-65
2023/10/02 08:40:08;;;;;;;1999.90;999.90;;;18.20;99.90;;;;;;5102104;27;20016;-65
2023/10/02 08:42:35;;;;;;;1999.90;999.90;;;18.20;99.90;;;;;;5115740;27;20051;-66
2023/10/02 08:45:02;;;;;;;1999.90;999.90;;;18.20;99.90;;;;;;5125440;27;20031;-66
2023/10/02 08:47:28;;;;;;;1999.90;999.90;;;18.20;99.90;;;;;;5109579;27;20448;-66
2023/10/02 08:50:04;;;;;;;1999.90;999.90;;;18.20;99.90;;;;;;5115691;27;20040;-65
2023/10/02 08:52:42;;;;;;;1999.90;999.90;;;18.20;99.90;;;;;;5095538;28;20028;-66
2023/10/02 08:55:51;;;;;;;1999.90;999.90;;;18.20;99.90;;;;;;5112772;28;20441;-66
2023/10/02 08:58:22;;;;;;;1999.90;999.90;;;18.20;99.90;;;;;;5109249;28;20318;-66
2023/10/02 09:01:17;;;;;;;1999.90;999.90;;;18.10;99.90;;;;;;5112741;28;20020;-65
2023/10/02 09:06:43;;;;;;;1999.90;999.90;;;18.30;99.90;;;;;;5115974;28;20042;-66
2023/10/02 09:09:27;;;;;;;1999.90;999.90;;;18.30;99.90;;;;;;5118542;28;20028;-66
2023/10/02 09:11:59;;;;;;;1999.90;999.90;;;18.40;99.90;;;;;;5114749;28;20028;-66
2023/10/02 09:20:09;;;;;;;1999.90;999.90;;;18.70;99.90;;;;;;5104692;28;20442;-65
2023/10/02 09:22:38;;;;;;;1999.90;999.90;;;18.80;99.90;;;;;;5104818;28;20172;-65
2023/10/02 09:25:13;;;;;;;1999.90;999.90;;;18.80;99.90;;;;;;5111028;28;20027;-66
2023/10/02 09:27:57;;;;;;;1999.90;999.90;;;18.90;99.90;;;;;;5097477;28;20048;-65
2023/10/02 09:33:08;;;;;;;1999.90;999.90;;;19.00;99.90;;;;;;5108227;28;20020;-66
2023/10/02 09:35:50;;;;;;;1999.90;999.90;;;19.20;99.90;;;;;;5106697;28;20141;-75
2023/10/02 09:38:17;;;;;;;1999.90;999.90;;;19.20;99.90;;;;;;5083484;28;20411;-66
2023/10/02 09:43:31;;;;;;;1999.90;999.90;;;19.40;99.90;;;;;;5097183;28;20470;-66
2023/10/02 09:45:59;;;;;;;1999.90;999.90;;;19.50;99.90;;;;;;5099745;28;20058;-65
2023/10/02 09:51:27;;;;;;;1999.90;999.90;;;19.70;99.90;;;;;;5094895;28;20401;-65
2023/10/02 09:54:05;;;;;;;1999.90;999.90;;;19.70;99.90;;;;;;5102400;28;20036;-66
2023/10/02 09:56:53;;;;;;;1999.90;999.90;;;19.70;99.90;;;;;;5105682;28;20027;-65
2023/10/02 09:59:23;;;;;;;1999.90;999.90;;;19.80;99.90;;;;;;5108719;28;20356;-66
2023/10/02 10:07:51;;;;;;;1999.90;999.90;;;20.40;99.90;;;;;;5040012;28;20383;-66
2023/10/02 10:10:49;;;;;;;1999.90;999.90;;;20.50;99.90;;;;;;5036272;28;20053;-66
2023/10/02 10:13:46;;;;;;;1999.90;999.90;;;20.50;99.90;;;;;;5031527;28;20022;-66
2023/10/02 10:16:18;;;;;;;1999.90;999.90;;;20.40;99.90;;;;;;5012735;28;20377;-66
2023/10/02 10:22:00;;;;;;;1999.90;999.90;;;20.30;99.90;;;;;;5035390;28;20562;-66
2023/10/02 10:27:41;;;;;;;1999.90;999.90;;;20.30;99.90;;;;;;5031067;28;20148;-66
2023/10/02 10:30:20;;;;;;;1999.90;999.90;;;20.40;99.90;;;;;;5044486;28;20129;-66
2023/10/02 10:32:46;;;;;;;1999.90;999.90;;;20.40;99.90;;;;;;5034242;28;20072;-65
2023/10/02 10:35:34;;;;;;;1999.90;999.90;;;20.50;99.90;;;;;;5032273;28;20113;-66
2023/10/02 10:38:36;;;;;;;1999.90;999.90;;;20.50;99.90;;;;;;5033756;28;20044;-66
2023/10/02 10:41:06;;;;;;;1999.90;999.90;;;20.50;99.90;;;;;;5089704;27;20041;-66
2023/10/02 10:46:18;;;;;;;1999.90;999.90;;;20.70;99.90;;;;;;5108838;27;20416;-65
2023/10/02 10:48:53;;;;;;;1999.90;999.90;;;20.70;99.90;;;;;;5080859;28;20024;-66
2023/10/02 10:51:21;;;;;;;1999.90;999.90;;;20.80;99.90;;;;;;5102197;28;20319;-66
2023/10/02 10:53:52;;;;;;;1999.90;999.90;;;20.80;99.90;;;;;;5106448;28;20036;-66
2023/10/02 10:56:19;;;;;;;1999.90;999.90;;;20.80;99.90;;;;;;5103529;28;20034;-66
2023/10/02 10:58:47;;;;;;;1999.90;999.90;;;20.80;99.90;;;;;;5108714;28;20023;-75
2023/10/02 11:01:16;;;;;;;1999.90;999.90;;;20.80;99.90;;;;;;5101232;28;20024;-66
2023/10/02 11:03:49;;;;;;;1999.90;999.90;;;20.80;99.90;;;;;;5098950;28;20090;-65
2023/10/02 11:06:16;;;;;;;1999.90;999.90;;;20.90;99.90;;;;;;5110329;28;20077;-75
2023/10/02 11:08:44;;;;;;;1999.90;999.90;;;20.80;99.90;;;;;;5105082;28;20102;-66
2023/10/02 11:11:18;;;;;;;1999.90;999.90;;;20.90;99.90;;;;;;5112549;28;20489;-66
2023/10/02 11:13:57;;;;;;;1999.90;999.90;;;20.90;99.90;;;;;;5105429;28;20021;-75
2023/10/02 11:16:31;;;;;;;1999.90;999.90;;;20.90;99.90;;;;;;5110186;28;20011;-66
2023/10/02 11:19:21;;;;;;;1999.90;999.90;;;21.00;99.90;;;;;;5106423;28;20044;-74
2023/10/02 11:22:16;;;;;;;1999.90;999.90;;;21.00;99.90;;;;;;5111587;28;20064;-66
2023/10/02 11:24:52;;;;;;;1999.90;999.90;;;21.10;99.90;;;;;;5098809;28;20026;-66
2023/10/02 11:27:18;;;;;;;1999.90;999.90;;;21.10;99.90;;;;;;5100741;28;20011;-66
2023/10/02 11:30:00;;;;;;;1999.90;999.90;;;21.20;99.90;;;;;;5111576;28;20046;-66
2023/10/02 11:32:45;;;;;;;1999.90;999.90;;;21.20;99.90;;;;;;5107143;28;20054;-66
2023/10/02 11:35:11;;;;;;;1999.90;999.90;;;21.60;99.90;;;;;;5103904;28;20050;-66
2023/10/02 11:37:48;;;;;;;1999.90;999.90;;;21.80;99.90;;;;;;5111254;27;20430;-66
2023/10/02 11:40:14;;;;;;;1999.90;999.90;;;21.90;99.90;;;;;;5104308;27;20024;-66
2023/10/02 11:42:40;;;;;;;1999.90;999.90;;;22.10;99.90;;;;;;5091693;28;20038;-66
2023/10/02 11:45:08;;;;;;;1999.90;999.90;;;22.20;99.90;;;;;;5111060;27;20031;-65
2023/10/02 11:47:34;;;;;;;1999.90;999.90;;;22.30;99.90;;;;;;5106648;27;20115;-66
2023/10/02 11:50:00;;;;;;;1999.90;999.90;;;22.40;99.90;;;;;;5110272;27;20122;-66
2023/10/02 11:52:26;;;;;;;1999.90;999.90;;;22.50;99.90;;;;;;5085082;28;20032;-66
2023/10/02 11:54:52;;;;;;;1999.90;999.90;;;22.40;99.90;;;;;;5116754;27;20031;-66
2023/10/02 11:57:18;;;;;;;1999.90;999.90;;;22.50;99.90;;;;;;5109825;28;20020;-66
2023/10/02 11:59:50;;;;;;;1999.90;999.90;;;22.60;99.90;;;;;;5111953;27;20362;-66
2023/10/02 12:02:19;;;;;;;1999.90;999.90;;;22.70;99.90;;;;;;5109212;27;20028;-66
2023/10/02 12:04:46;;;;;;;1999.90;999.90;;;22.80;99.90;;;;;;5108199;27;20035;-66
2023/10/02 12:07:16;;;;;;;;;;;22.90;99.90;;;;;;5112980;28;20106;-66
2023/10/02 12:09:47;;;;;;;1999.90;999.90;;;22.90;99.90;;;;;;5110266;28;19907;-66
2023/10/02 12:12:13;;;;;;;1999.90;999.90;;;23.00;99.90;;;;;;5111044;27;20031;-66
2023/10/02 12:14:42;;;;;;;1999.90;999.90;;;23.10;99.90;;;;;;5107522;28;20050;-66
2023/10/02 12:17:11;;;;;;;1999.90;999.90;;;23.10;99.90;;;;;;5108536;27;20057;-66
2023/10/02 12:19:40;;;;;;;1999.90;999.90;;;23.20;99.90;;;;;;5110224;27;20422;-67
2023/10/02 12:22:09;;;;;;;1999.90;999.90;;;23.20;99.90;;;;;;5122126;27;20030;-66
2023/10/02 12:24:35;;;;;;;1999.90;999.90;;;23.30;99.90;;;;;;5102647;27;20042;-67
2023/10/02 12:27:02;;;;;;;;;;;23.40;99.90;;;;;;5107515;27;20042;-66
2023/10/02 12:29:29;;;;;;;1999.90;999.90;;;23.40;99.90;;;;;;5105752;27;19912;-66
2023/10/02 12:31:59;;;;;;;1999.90;999.90;;;23.50;99.90;;;;;;5111863;27;20015;-65
2023/10/02 12:34:25;;;;;;;1999.90;999.90;;;23.50;99.90;;;;;;5114425;27;20114;-66
2023/10/02 12:36:53;;;;;;;1999.90;999.90;;;23.60;99.90;;;;;;5088651;28;20356;-66
2023/10/02 12:39:19;;;;;;;1999.90;999.90;;;23.60;99.90;;;;;;5107706;27;20023;-66
2023/10/02 12:41:45;;;;;;;1999.90;999.90;;;23.60;99.90;;;;;;5110460;28;20035;-66
2023/10/02 12:44:11;;;;;;;1999.90;999.90;;;23.60;99.90;;;;;;5113164;27;20110;-75
2023/10/02 12:46:43;;;;;;;1999.90;999.90;;;23.60;99.90;;;;;;5108531;28;20068;-66
2023/10/02 12:49:09;;;;;;;1999.90;999.90;;;23.60;99.90;;;;;;5082965;28;20284;-66
2023/10/02 12:51:35;;;;;;;1999.90;999.90;;;23.70;99.90;;;;;;5109799;28;20042;-66
2023/10/02 12:54:01;;;;;;;1999.90;999.90;;;23.70;99.90;;;;;;5104411;28;20030;-66
2023/10/02 12:56:27;;;;;;;1999.90;999.90;;;23.70;99.90;;;;;;5102932;28;20020;-66
2023/10/02 12:58:54;;;;;;;1999.90;999.90;;;23.60;99.90;;;;;;5101252;28;20512;-66
2023/10/02 13:01:28;;;;;;;1999.90;999.90;;;23.60;99.90;;;;;;5108017;28;20040;-66
2023/10/02 13:03:55;;;;;;;1999.90;999.90;;;23.60;99.90;;;;;;5110663;28;20016;-71
2023/10/02 13:06:22;;;;;;;;;;;23.60;99.90;;;;;;5098843;28;20031;-66
2023/10/02 13:08:48;;;;;;;1999.90;999.90;;;23.60;99.90;;;;;;5099078;28;19911;-67
2023/10/02 13:11:19;;;;;;;1999.90;999.90;;;23.60;99.90;;;;;;5103479;28;20024;-75
2023/10/02 13:13:46;;;;;;;1999.90;999.90;;;23.60;99.90;;;;;;5095235;28;20029;-75
2023/10/02 13:16:19;;;;;;;1999.90;999.90;;;23.70;99.90;;;;;;5094442;28;20016;-74
2023/10/02 13:18:46;;;;;;;1999.90;999.90;;;23.70;99.90;;;;;;5094494;28;20028;-75
2023/10/02 13:21:18;;;;;;;;;;;23.70;99.90;;;;;;5094512;28;20016;-67
2023/10/02 13:23:44;;;;;;;1999.90;999.90;;;23.70;99.90;;;;;;5093826;28;19908;-75
2023/10/02 13:26:11;;;;;;;1999.90;999.90;;;23.70;99.90;;;;;;5102343;28;20028;-66
2023/10/02 13:28:38;;;;;;;1999.90;999.90;;;23.70;99.90;;;;;;5099615;28;20438;-66
2023/10/02 13:31:14;;;;;;;1999.90;999.90;;;23.70;99.90;;;;;;5094277;28;20036;-66
2023/10/02 13:33:46;;;;;;;1999.90;999.90;;;23.70;99.90;;;;;;5113478;28;20024;-66
2023/10/02 13:36:17;;;;;;;1999.90;999.90;;;23.60;99.90;;;;;;5117292;28;20015;-66
2023/10/02 13:38:45;;;;;;;1999.90;999.90;;;23.60;99.90;;;;;;5099814;28;20419;-66
2023/10/02 13:41:11;;;;;;;1999.90;999.90;;;23.70;99.90;;;;;;5098020;28;20028;-73